Time;durP1;ratioP1;P1;durP2;ratioP2;P2;SDS_P1;SDS_P2;PMS_P1;PMS_P2;Temp;Humidity;BMP_temperature;BMP_pressure;BME280_temperature;BME280_humidity;BME280_pressure;Samples;Min_cycle;Max_cycle;Signal;HPM_P1;HPM_P2
2024/03/27 00:02:34;;;;;;;9.77;8.82;;;;;;;12.70;94.82;98574.88;5085262;28;20051;-79
2024/03/27 00:05:39;;;;;;;10.63;9.52;;;;;;;12.62;94.83;98562.38;5085998;28;20052;-79
2024/03/27 00:08:43;;;;;;;10.73;9.35;;;;;;;12.68;94.89;98560.78;5077166;28;20380;-77
2024/03/27 00:11:50;;;;;;;12.00;10.77;;;;;;;12.63;94.86;98555.16;5076158;28;20051;-81
2024/03/27 00:14:54;;;;;;;12.50;10.57;;;;;;;12.61;95.30;98551.81;5076818;28;20636;-82
2024/03/27 00:17:59;;;;;;;13.25;11.95;;;;;;;12.56;94.73;98549.69;5076509;28;20067;-84
2024/03/27 00:21:03;;;;;;;12.93;11.52;;;;;;;12.55;95.27;98548.03;5079958;28;20060;-82
2024/03/27 00:24:07;;;;;;;15.13;12.27;;;;;;;12.70;94.58;98556.03;5087755;28;20063;-83
2024/03/27 00:27:12;;;;;;;15.20;13.13;;;;;;;12.50;94.81;98542.38;5076001;28;20066;-84
2024/03/27 00:30:17;;;;;;;16.55;13.90;;;;;;;12.37;95.65;98529.63;5076072;28;20063;-81
2024/03/27 00:33:23;;;;;;;15.32;13.80;;;;;;;12.59;94.58;98524.25;5076012;28;20059;-79
2024/03/27 00:36:27;;;;;;;15.18;13.52;;;;;;;12.69;94.72;98511.31;5075211;28;20051;-83
2024/03/27 00:39:32;;;;;;;14.63;13.13;;;;;;;12.53;95.47;98519.63;5075867;28;20060;-83
2024/03/27 00:42:36;;;;;;;15.80;13.68;;;;;;;12.58;95.49;98518.03;5075940;28;20059;-82
2024/03/27 00:45:42;;;;;;;13.52;12.13;;;;;;;12.69;94.63;98527.47;5075858;28;20498;-86
2024/03/27 00:48:46;;;;;;;13.95;12.27;;;;;;;12.84;93.79;98520.13;5075663;28;20050;-85
2024/03/27 00:51:51;;;;;;;16.42;13.70;;;;;;;12.24;95.35;98513.34;5075836;28;20047;-85
2024/03/27 00:54:55;;;;;;;14.77;13.27;;;;;;;12.44;95.18;98496.56;5075264;28;20044;-86
2024/03/27 00:58:00;;;;;;;14.90;13.35;;;;;;;12.50;95.39;98461.66;5075451;28;20383;-84
2024/03/27 01:01:04;;;;;;;14.15;12.75;;;;;;;12.59;95.02;98452.41;5063180;28;20052;-83
2024/03/27 01:04:08;;;;;;;14.48;13.05;;;;;;;12.44;94.80;98456.22;5075357;28;20482;-86
2024/03/27 01:07:13;;;;;;;14.70;13.20;;;;;;;12.58;93.82;98466.91;5075739;28;20043;-86
2024/03/27 01:10:18;;;;;;;14.57;12.98;;;;;;;12.44;95.23;98467.81;5075278;28;20497;-86
2024/03/27 01:13:22;;;;;;;18.95;15.15;;;;;;;12.48;95.52;98462.88;5075575;28;20502;-87
2024/03/27 01:16:27;;;;;;;16.08;14.48;;;;;;;12.73;93.99;98474.91;5075400;28;20119;-86
2024/03/27 01:19:32;;;;;;;17.42;15.52;;;;;;;12.22;96.27;98484.97;5075178;28;20048;-84
2024/03/27 01:22:36;;;;;;;18.13;16.02;;;;;;;12.00;97.07;98477.91;5075082;28;20051;-86
2024/03/27 01:25:41;;;;;;;17.65;15.25;;;;;;;12.65;94.67;98456.19;5074776;28;20044;-86
2024/03/27 01:28:45;;;;;;;18.20;15.68;;;;;;;12.73;94.31;98458.75;5074942;28;20119;-83
2024/03/27 01:31:50;;;;;;;17.02;15.23;;;;;;;12.63;94.31;98451.00;5074216;28;20052;-82
2024/03/27 01:34:55;;;;;;;16.98;15.15;;;;;;;12.46;95.51;98429.94;5075099;28;20071;-86
2024/03/27 01:37:59;;;;;;;17.52;15.00;;;;;;;12.61;94.37;98428.00;5075364;28;20071;-86
2024/03/27 01:41:04;;;;;;;19.00;15.10;;;;;;;12.75;94.31;98435.16;5074583;28;20066;-79
2024/03/27 01:44:17;;;;;;;17.73;15.18;;;;;;;12.89;93.16;98420.75;5080069;28;20048;-79
2024/03/27 01:47:22;;;;;;;18.48;15.52;;;;;;;12.66;93.75;98399.50;5088503;28;20044;-78
2024/03/27 01:50:28;;;;;;;16.33;14.02;;;;;;;12.54;93.90;98402.91;5085016;28;20483;-81
2024/03/27 01:53:33;;;;;;;16.80;13.02;;;;;;;12.29;96.13;98403.28;5075247;28;20051;-83
2024/03/27 01:56:38;;;;;;;17.60;13.18;;;;;;;12.44;96.08;98394.31;5074337;28;20051;-82
2024/03/27 01:59:43;;;;;;;15.18;13.23;;;;;;;12.52;95.74;98391.50;5074368;28;20404;-82
2024/03/27 02:02:49;;;;;;;15.45;11.85;;;;;;;12.46;95.51;98390.41;5072712;28;20056;-84
2024/03/27 02:05:56;;;;;;;16.20;12.07;;;;;;;12.25;96.10;98388.56;5084963;28;20051;-83
2024/03/27 02:09:02;;;;;;;17.48;11.88;;;;;;;12.63;95.27;98381.03;5073992;28;20375;-84
2024/03/27 02:12:07;;;;;;;15.57;11.98;;;;;;;12.71;94.62;98367.44;5051705;28;20431;-85
2024/03/27 02:15:12;;;;;;;19.15;12.88;;;;;;;12.29;96.11;98365.63;5040628;28;20044;-84
2024/03/27 02:18:17;;;;;;;21.85;13.55;;;;;;;12.10;97.67;98368.97;5069188;28;20167;-82
2024/03/27 02:21:21;;;;;;;21.92;14.07;;;;;;;12.31;97.50;98365.44;5071787;28;20136;-84
2024/03/27 02:24:44;;;;;;;18.92;14.52;;;;;;;12.23;97.45;98355.66;5060177;28;20166;-82
2024/03/27 02:27:49;;;;;;;21.88;14.73;;;;;;;12.37;96.21;98340.44;5060350;28;20431;-83
2024/03/27 02:30:53;;;;;;;21.70;16.33;;;;;;;12.31;97.66;98341.25;5072020;28;20043;-85
2024/03/27 02:33:57;;;;;;;23.00;16.48;;;;;;;12.51;96.54;98336.00;5071879;28;20598;-84
2024/03/27 02:37:01;;;;;;;21.15;16.23;;;;;;;12.43;97.48;98331.59;5072237;28;20537;-85
2024/03/27 02:40:06;;;;;;;19.30;15.10;;;;;;;12.44;97.07;98308.22;5071070;28;20585;-82
2024/03/27 02:43:10;;;;;;;18.63;13.98;;;;;;;12.66;95.46;98309.81;5088042;28;20501;-77
2024/03/27 02:46:15;;;;;;;18.80;15.75;;;;;;;12.58;95.85;98318.88;5093756;28;20066;-77
2024/03/27 02:49:19;;;;;;;17.55;14.32;;;;;;;12.56;95.62;98326.31;5093554;28;20051;-77
2024/03/27 02:52:23;;;;;;;18.15;15.27;;;;;;;12.64;95.76;98314.56;5094562;28;20066;-77
2024/03/27 02:55:28;;;;;;;16.73;14.50;;;;;;;12.27;96.67;98303.13;5093473;28;20047;-76
2024/03/27 02:58:33;;;;;;;17.40;13.98;;;;;;;12.37;97.03;98297.41;5093500;28;20055;-79
2024/03/27 03:01:38;;;;;;;16.13;13.30;;;;;;;12.34;96.57;98297.81;5093391;28;20051;-76
2024/03/27 03:04:43;;;;;;;16.27;13.20;;;;;;;12.36;97.56;98285.00;5093468;28;20047;-76
2024/03/27 03:07:47;;;;;;;16.15;13.27;;;;;;;12.36;97.71;98276.91;5080662;28;20054;-76
2024/03/27 03:10:54;;;;;;;18.40;14.15;;;;;;;12.33;97.85;98274.63;5093527;28;20051;-78
2024/03/27 03:13:58;;;;;;;17.50;13.68;;;;;;;12.61;97.02;98282.66;5093224;28;20051;-78
2024/03/27 03:17:02;;;;;;;19.30;14.52;;;;;;;12.77;96.17;98290.41;5093619;28;20482;-77
2024/03/27 03:20:07;;;;;;;19.58;13.85;;;;;;;12.66;96.61;98291.81;5093629;28;20067;-81
2024/03/27 03:23:12;;;;;;;15.10;13.02;;;;;;;12.31;97.00;98296.34;5093548;28;20051;-78
2024/03/27 03:26:16;;;;;;;15.30;13.63;;;;;;;12.47;97.52;98297.06;5096859;28;20055;-77
2024/03/27 03:29:21;;;;;;;16.70;13.82;;;;;;;12.57;95.83;98298.38;5098228;28;20063;-77
2024/03/27 03:32:25;;;;;;;15.90;13.05;;;;;;;12.67;96.02;98298.84;5095011;28;20391;-78
2024/03/27 03:35:30;;;;;;;16.27;13.80;;;;;;;12.69;96.19;98312.13;5092804;28;20064;-82
2024/03/27 03:38:34;;;;;;;16.60;13.90;;;;;;;12.73;96.00;98302.63;5093192;28;20043;-83
2024/03/27 03:41:39;;;;;;;18.15;14.30;;;;;;;12.56;96.90;98302.09;5092902;28;20063;-83
2024/03/27 03:44:43;;;;;;;15.68;13.38;;;;;;;12.65;96.77;98303.59;5093763;28;20047;-75
2024/03/27 03:47:48;;;;;;;19.27;15.18;;;;;;;12.31;97.72;98304.41;5093699;28;20044;-80
2024/03/27 03:50:52;;;;;;;16.55;14.07;;;;;;;12.38;97.96;98302.59;5095844;28;20054;-79
2024/03/27 03:53:57;;;;;;;16.35;14.15;;;;;;;12.47;97.24;98291.69;5096883;28;20394;-81
2024/03/27 03:57:01;;;;;;;16.70;13.80;;;;;;;12.27;98.29;98289.66;5095665;28;20051;-80
2024/03/27 04:00:15;;;;;;;16.08;13.77;;;;;;;12.51;97.47;98284.88;5096483;28;20047;-78
2024/03/27 04:03:19;;;;;;;;;;;;;;;12.54;96.50;98281.81;5097512;28;20051;-82
2024/03/27 04:06:24;;;;;;;16.25;12.93;;;;;;;12.47;97.69;98276.34;5107754;28;20262;-80
2024/03/27 04:09:30;;;;;;;15.80;12.18;;;;;;;12.47;97.76;98254.03;5096551;28;20385;-79
2024/03/27 04:12:35;;;;;;;15.90;12.55;;;;;;;12.30;97.42;98275.84;5095930;28;20371;-80
2024/03/27 04:15:40;;;;;;;15.63;12.45;;;;;;;12.50;97.51;98249.06;5096509;28;20058;-80
2024/03/27 04:18:45;;;;;;;18.35;13.32;;;;;;;12.46;97.83;98268.50;5096553;28;20055;-80
2024/03/27 04:21:49;;;;;;;19.83;13.32;;;;;;;12.10;99.74;98258.72;5096300;28;20051;-81
2024/03/27 04:24:53;;;;;;;15.82;12.90;;;;;;;12.27;99.50;98265.47;5083961;28;20067;-81
2024/03/27 04:27:58;;;;;;;16.33;12.70;;;;;;;12.38;98.75;98245.25;5081839;28;20048;-85
2024/03/27 04:31:04;;;;;;;19.02;12.95;;;;;;;12.39;98.91;98214.66;5076266;28;20051;-83
2024/03/27 04:34:08;;;;;;;19.73;13.15;;;;;;;12.19;99.82;98236.06;5075992;28;20071;-82
2024/03/27 04:37:13;;;;;;;19.67;13.20;;;;;;;12.32;98.92;98241.50;5076052;28;20495;-82
2024/03/27 04:40:18;;;;;;;18.02;12.95;;;;;;;12.70;97.12;98217.69;5075821;28;20048;-80
2024/03/27 04:43:22;;;;;;;18.88;14.02;;;;;;;12.50;97.72;98216.75;5074874;28;20051;-85
2024/03/27 04:46:26;;;;;;;17.10;13.95;;;;;;;12.46;98.13;98193.16;5075213;28;20047;-78
2024/03/27 04:49:31;;;;;;;19.63;14.52;;;;;;;12.49;98.07;98198.16;5074680;28;20044;-79
2024/03/27 04:52:35;;;;;;;20.10;14.98;;;;;;;12.26;98.83;98172.38;5075836;28;20489;-78
2024/03/27 04:55:39;;;;;;;20.20;14.93;;;;;;;12.42;99.25;98184.63;5074270;28;20533;-78
2024/03/27 04:58:44;;;;;;;23.38;16.15;;;;;;;12.32;99.07;98178.78;5074445;28;20139;-79
2024/03/27 05:01:49;;;;;;;23.70;16.58;;;;;;;12.49;98.59;98172.06;5075372;28;20056;-77
2024/03/27 05:04:53;;;;;;;23.38;16.70;;;;;;;12.22;99.33;98173.75;5081509;28;20055;-77
2024/03/27 05:07:58;;;;;;;25.48;16.70;;;;;;;12.17;100.00;98146.63;5081156;28;20043;-79
2024/03/27 05:11:02;;;;;;;33.17;17.55;;;;;;;12.10;100.00;98137.69;5077632;28;20044;-77
2024/03/27 05:14:06;;;;;;;31.67;17.95;;;;;;;12.41;99.19;98142.63;5075300;28;20056;-83
2024/03/27 05:17:12;;;;;;;30.23;18.48;;;;;;;12.27;99.19;98151.69;5085829;28;20070;-82
2024/03/27 05:20:17;;;;;;;35.92;21.38;;;;;;;12.25;99.07;98149.16;5075035;28;20395;-85
2024/03/27 05:23:21;;;;;;;35.85;19.05;;;;;;;12.18;100.00;98142.94;5074689;28;20063;-82
2024/03/27 05:26:26;;;;;;;36.47;19.65;;;;;;;12.27;99.67;98141.72;5086706;28;20067;-85
2024/03/27 05:29:30;;;;;;;39.42;21.55;;;;;;;11.89;100.00;98147.72;5094983;28;20043;-81
2024/03/27 05:32:35;;;;;;;40.40;21.77;;;;;;;11.76;100.00;98151.13;5095141;28;20134;-82
2024/03/27 05:35:39;;;;;;;36.10;21.05;;;;;;;12.12;100.00;98141.03;5095038;28;20047;-79
2024/03/27 05:38:44;;;;;;;40.13;21.88;;;;;;;12.37;99.80;98136.81;5094865;28;20047;-84
2024/03/27 05:41:49;;;;;;;35.72;21.25;;;;;;;12.19;100.00;98114.19;5094784;28;20039;-79
2024/03/27 05:44:53;;;;;;;33.85;21.35;;;;;;;12.26;100.00;98125.78;5094395;28;20044;-78
2024/03/27 05:47:58;;;;;;;38.08;20.65;;;;;;;12.22;100.00;98116.47;5094762;28;20040;-78
2024/03/27 05:51:02;;;;;;;35.95;21.55;;;;;;;12.30;99.57;98114.44;5094737;28;20051;-80
2024/03/27 05:54:07;;;;;;;40.47;23.35;;;;;;;12.15;100.00;98112.91;5093539;28;20398;-78
2024/03/27 05:57:11;;;;;;;40.50;23.30;;;;;;;12.19;100.00;98106.94;5094386;28;20047;-78
2024/03/27 06:00:16;;;;;;;38.38;22.20;;;;;;;12.09;100.00;98095.72;5094258;28;20050;-77
2024/03/27 06:03:21;;;;;;;39.85;22.17;;;;;;;12.19;100.00;98080.06;5093413;28;20043;-77
2024/03/27 06:06:25;;;;;;;37.85;21.58;;;;;;;12.34;100.00;98079.91;5094092;28;20473;-78
2024/03/27 06:09:30;;;;;;;31.90;20.60;;;;;;;12.70;99.83;98071.50;5093245;28;20044;-78
2024/03/27 06:12:34;;;;;;;30.80;19.08;;;;;;;12.46;100.00;98047.84;5094236;28;20066;-78
2024/03/27 06:15:39;;;;;;;26.33;17.98;;;;;;;12.82;99.96;98048.34;5094278;28;20383;-79
2024/03/27 06:18:44;;;;;;;26.40;17.70;;;;;;;12.76;99.21;98058.09;5097915;28;20059;-78
2024/03/27 06:21:48;;;;;;;24.30;16.90;;;;;;;12.43;99.96;98042.88;5093968;28;20063;-78
2024/03/27 06:24:54;;;;;;;24.35;15.88;;;;;;;12.56;99.85;98033.00;5093870;28;20047;-79
2024/03/27 06:27:58;;;;;;;22.45;15.48;;;;;;;12.68;100.00;98033.22;5093582;28;20062;-79
2024/03/27 06:31:03;;;;;;;23.90;15.35;;;;;;;12.84;99.13;98030.09;5093830;28;20047;-77
2024/03/27 06:34:07;;;;;;;20.33;15.25;;;;;;;12.69;99.22;98034.88;5094067;28;20059;-78
2024/03/27 06:37:11;;;;;;;21.23;15.80;;;;;;;12.93;98.78;98027.03;5090022;28;20051;-77
2024/03/27 06:40:17;;;;;;;21.17;15.57;;;;;;;12.82;99.08;98037.56;5073296;28;20063;-81
2024/03/27 06:43:21;;;;;;;21.05;15.13;;;;;;;12.91;98.32;98033.66;5073807;28;20055;-77
2024/03/27 06:46:27;;;;;;;22.02;16.02;;;;;;;12.62;99.66;98045.63;5075103;28;20391;-78
2024/03/27 06:49:33;;;;;;;24.95;17.95;;;;;;;12.78;98.55;98025.56;5074855;28;20075;-78
2024/03/27 06:52:37;;;;;;;25.35;18.48;;;;;;;12.70;98.87;98029.28;5073278;28;20419;-79
2024/03/27 06:55:42;;;;;;;25.55;18.52;;;;;;;12.53;98.90;98033.38;5073116;28;20055;-79
2024/03/27 06:58:46;;;;;;;25.50;18.83;;;;;;;12.55;99.67;98017.03;5073274;28;20344;-78
2024/03/27 07:01:51;;;;;;;27.23;19.77;;;;;;;13.04;98.00;98014.81;5081384;28;20047;-83
2024/03/27 07:04:55;;;;;;;26.27;19.70;;;;;;;12.96;97.60;98013.13;5091141;28;20458;-77
2024/03/27 07:08:00;;;;;;;25.35;18.77;;;;;;;12.71;98.83;98019.34;5076527;28;20047;-78
2024/03/27 07:11:04;;;;;;;26.77;18.88;;;;;;;12.80;98.21;98001.94;5088746;28;20059;-76
2024/03/27 07:14:09;;;;;;;28.38;21.98;;;;;;;12.45;98.76;97995.91;5080958;28;20422;-77
2024/03/27 07:17:15;;;;;;;27.98;20.48;;;;;;;12.66;98.82;98005.69;5088955;28;20514;-76
2024/03/27 07:20:19;;;;;;;30.15;22.35;;;;;;;12.60;99.86;97998.41;5092364;28;20138;-76
2024/03/27 07:23:27;;;;;;;31.25;22.33;;;;;;;12.64;99.27;98003.16;5089882;28;20071;-76
2024/03/27 07:26:34;;;;;;;30.63;21.98;;;;;;;12.78;98.33;98026.41;5090876;28;20067;-76
2024/03/27 07:29:38;;;;;;;32.42;22.67;;;;;;;12.49;99.13;98009.78;5084993;28;20035;-77
2024/03/27 07:32:43;;;;;;;31.23;22.48;;;;;;;12.52;99.01;98022.84;5086065;28;20071;-85
2024/03/27 07:35:48;;;;;;;31.45;22.08;;;;;;;12.69;99.96;98029.50;5083418;28;20401;-85
2024/03/27 07:38:52;;;;;;;31.63;22.38;;;;;;;12.56;99.24;98049.13;5097401;28;20089;-88
2024/03/27 07:41:57;;;;;;;29.42;21.08;;;;;;;12.37;100.00;98088.38;5096271;28;20059;-84
2024/03/27 07:45:02;;;;;;;36.15;21.45;;;;;;;12.44;100.00;98087.59;5076631;28;20151;-78
2024/03/27 07:48:11;;;;;;;31.80;20.70;;;;;;;12.44;100.00;98079.53;5084784;28;20062;-79
2024/03/27 07:51:16;;;;;;;29.67;19.45;;;;;;;12.66;100.00;98062.19;5075461;28;20063;-78
2024/03/27 07:54:22;;;;;;;25.95;17.73;;;;;;;12.92;98.30;98070.31;5103486;27;20063;-78
2024/03/27 07:57:27;;;;;;;27.25;17.92;;;;;;;12.95;98.19;98075.28;5086312;28;20067;-80
2024/03/27 08:00:32;;;;;;;27.35;17.80;;;;;;;12.87;97.49;98038.63;5094599;28;20051;-78
2024/03/27 08:03:36;;;;;;;27.38;18.15;;;;;;;12.83;98.06;98045.47;5092279;28;20110;-80
2024/03/27 08:06:41;;;;;;;29.65;19.15;;;;;;;12.92;97.80;98032.63;5095635;28;20516;-78
2024/03/27 08:09:53;;;;;;;29.27;18.83;;;;;;;12.79;97.78;98021.81;5090889;28;20059;-81
2024/03/27 08:12:57;;;;;;;28.83;18.15;;;;;;;13.05;97.55;98032.63;5086906;28;20401;-80
2024/03/27 08:16:03;;;;;;;30.05;17.40;;;;;;;13.19;97.28;98020.84;5095420;28;20409;-79
2024/03/27 08:19:08;;;;;;;23.10;16.60;;;;;;;13.47;96.36;98015.22;5095788;28;20043;-80
2024/03/27 08:22:12;;;;;;;21.20;15.27;;;;;;;13.37;96.01;98017.50;5094502;28;20505;-79
2024/03/27 08:25:17;;;;;;;23.92;15.68;;;;;;;13.60;94.84;98026.78;5095790;28;20047;-79
2024/03/27 08:28:21;;;;;;;19.55;14.48;;;;;;;13.65;94.72;98029.69;5097018;28;20045;-78
2024/03/27 08:31:26;;;;;;;22.65;15.27;;;;;;;13.57;95.12;98029.94;5087604;28;20055;-79
2024/03/27 08:34:31;;;;;;;25.52;13.75;;;;;;;13.69;95.50;98038.19;5085621;28;20055;-75
2024/03/27 08:37:36;;;;;;;19.65;14.07;;;;;;;13.83;95.50;98041.66;5074946;28;20107;-76
2024/03/27 08:40:40;;;;;;;21.10;14.55;;;;;;;13.95;94.85;98054.28;5074805;28;20055;-77
2024/03/27 08:43:46;;;;;;;20.88;14.68;;;;;;;13.85;94.82;98069.28;5074640;28;20052;-76
2024/03/27 08:46:51;;;;;;;22.17;15.48;;;;;;;13.54;95.86;98067.25;5077648;28;20063;-76
2024/03/27 08:49:57;;;;;;;25.10;16.17;;;;;;;13.66;94.79;98070.97;5087960;28;20047;-77
2024/03/27 08:53:01;;;;;;;24.05;14.98;;;;;;;13.85;94.38;98056.59;5074574;28;20391;-80
2024/03/27 08:56:06;;;;;;;21.88;15.80;;;;;;;13.93;93.46;98059.06;5074780;28;20454;-77
2024/03/27 08:59:11;;;;;;;22.50;16.63;;;;;;;13.96;93.98;98055.13;5078657;28;20067;-77
2024/03/27 09:02:15;;;;;;;20.33;16.13;;;;;;;14.08;93.59;98045.34;5094397;28;20051;-77
2024/03/27 09:05:20;;;;;;;21.65;15.88;;;;;;;14.08;93.18;98048.03;5089561;28;20063;-78
2024/03/27 09:08:25;;;;;;;21.38;16.52;;;;;;;13.89;93.64;98046.22;5094499;28;20075;-78
2024/03/27 09:11:31;;;;;;;23.73;15.63;;;;;;;14.05;93.51;98046.59;5094836;28;20055;-78
2024/03/27 09:14:36;;;;;;;23.73;16.42;;;;;;;14.12;93.09;98051.97;5092952;28;20062;-76
2024/03/27 09:17:41;;;;;;;21.52;16.80;;;;;;;14.11;94.05;98050.31;5094612;28;20051;-77
2024/03/27 09:20:58;;;;;;;26.95;18.60;;;;;;;14.19;93.75;98029.31;5092772;28;20055;-77
2024/03/27 09:24:03;;;;;;;23.23;16.48;;;;;;;14.42;93.01;98028.00;5080801;28;20059;-78
2024/03/27 09:27:08;;;;;;;26.02;17.98;;;;;;;14.57;93.30;98031.22;5093229;28;20058;-79
2024/03/27 09:30:16;;;;;;;28.30;20.05;;;;;;;14.68;92.96;98035.94;5093061;28;20477;-78
2024/03/27 09:33:23;;;;;;;26.45;20.35;;;;;;;15.16;91.81;98037.03;5094071;28;20055;-77
2024/03/27 09:36:28;;;;;;;31.75;22.90;;;;;;;15.36;91.04;98045.81;5073545;28;20134;-77
2024/03/27 09:39:33;;;;;;;114.40;78.18;;;;;;;15.39;90.66;98045.38;5072644;28;20513;-79
2024/03/27 09:42:38;;;;;;;39.40;28.48;;;;;;;15.52;89.78;98041.75;5073112;28;20402;-79
2024/03/27 09:45:46;;;;;;;21.45;16.83;;;;;;;15.79;88.55;98040.44;5072035;28;20363;-78
2024/03/27 09:48:53;;;;;;;18.88;14.60;;;;;;;15.77;88.46;98026.31;5072792;28;20044;-79
2024/03/27 09:51:59;;;;;;;17.55;13.55;;;;;;;15.81;88.33;98027.53;5073452;28;20059;-78
2024/03/27 09:55:05;;;;;;;16.38;12.65;;;;;;;15.90;87.93;98038.88;5072749;28;20051;-78
2024/03/27 09:58:16;;;;;;;15.18;13.00;;;;;;;16.05;87.72;98036.59;5073734;28;20047;-76
2024/03/27 10:01:20;;;;;;;15.05;11.43;;;;;;;16.32;85.94;98029.03;5073387;28;20063;-76
2024/03/27 10:04:25;;;;;;;14.68;10.95;;;;;;;16.34;84.61;98026.91;5095778;28;20055;-77
2024/03/27 10:07:30;;;;;;;15.60;10.77;;;;;;;16.54;83.74;98036.44;5099895;28;20052;-76
2024/03/27 10:10:36;;;;;;;13.38;9.93;;;;;;;16.42;84.39;98021.19;5100089;28;20047;-79
2024/03/27 10:13:42;;;;;;;13.50;10.75;;;;;;;16.62;84.30;98038.00;5092737;28;20063;-78
2024/03/27 10:16:48;;;;;;;11.40;10.20;;;;;;;16.74;84.43;98044.28;5092764;28;20062;-79
2024/03/27 10:19:55;;;;;;;13.23;9.88;;;;;;;16.83;83.32;98035.63;5092657;28;20043;-79
2024/03/27 10:23:00;;;;;;;11.93;8.43;;;;;;;16.97;82.89;98041.66;5079918;28;20044;-80
2024/03/27 10:26:05;;;;;;;11.45;8.27;;;;;;;16.80;82.27;98022.53;5092135;28;20051;-79
2024/03/27 10:29:10;;;;;;;8.85;7.53;;;;;;;17.07;81.66;98022.13;5092874;28;20409;-80
2024/03/27 10:32:14;;;;;;;8.75;7.07;;;;;;;16.27;84.04;98016.97;5093337;28;20044;-79
2024/03/27 10:35:21;;;;;;;8.85;7.10;;;;;;;16.05;85.18;98023.06;5091255;28;20058;-80
2024/03/27 10:38:29;;;;;;;8.13;7.07;;;;;;;16.07;85.54;98046.16;5092300;28;20062;-80
2024/03/27 10:41:34;;;;;;;9.65;7.13;;;;;;;16.21;85.56;98054.97;5052852;28;20392;-81
2024/03/27 10:44:39;;;;;;;8.25;6.50;;;;;;;16.39;85.07;98054.97;5051222;28;20052;-81
2024/03/27 10:47:45;;;;;;;7.53;6.28;;;;;;;16.42;85.24;98057.19;5052589;28;20044;-80
2024/03/27 10:50:49;;;;;;;9.73;6.90;;;;;;;16.43;85.64;98050.72;5050689;28;20479;-79
2024/03/27 10:53:55;;;;;;;7.40;5.85;;;;;;;16.33;85.84;98052.31;5051552;28;20043;-77
2024/03/27 10:56:59;;;;;;;7.95;6.20;;;;;;;16.40;85.65;98063.88;5055102;28;20052;-77
2024/03/27 11:00:05;;;;;;;6.72;5.47;;;;;;;16.37;85.65;98067.06;5040109;28;20048;-77
2024/03/27 11:03:10;;;;;;;8.07;5.45;;;;;;;16.30;85.32;98075.25;5056437;28;20052;-78
2024/03/27 11:06:17;;;;;;;5.78;4.80;;;;;;;16.33;85.39;98079.38;5056283;28;20040;-79
2024/03/27 11:09:22;;;;;;;6.63;4.95;;;;;;;16.07;86.02;98081.34;5056465;28;20056;-80
2024/03/27 11:12:28;;;;;;;6.88;5.60;;;;;;;16.21;86.36;98082.88;5047152;28;20052;-77
2024/03/27 11:15:33;;;;;;;6.25;5.30;;;;;;;16.46;85.23;98085.47;5036219;28;20052;-77
2024/03/27 11:18:42;;;;;;;6.85;5.07;;;;;;;16.49;84.79;98089.63;5035919;28;20064;-77
2024/03/27 11:21:46;;;;;;;6.90;5.53;;;;;;;16.65;85.40;98100.69;5036118;28;20048;-76
2024/03/27 11:24:51;;;;;;;5.82;4.70;;;;;;;16.70;85.41;98084.56;5036430;28;20072;-77
2024/03/27 11:27:56;;;;;;;6.90;4.78;;;;;;;16.73;85.82;98083.28;5036107;28;20048;-77
2024/03/27 11:31:05;;;;;;;6.75;5.07;;;;;;;16.78;85.45;98086.97;5036266;28;20479;-79
2024/03/27 11:34:09;;;;;;;7.47;5.95;;;;;;;17.00;85.19;98090.00;5035928;28;20057;-78
2024/03/27 11:37:14;;;;;;;6.45;4.35;;;;;;;17.15;84.91;98093.09;5036352;28;20045;-80
2024/03/27 11:40:20;;;;;;;4.85;3.50;;;;;;;17.38;81.63;98093.13;5057201;28;20055;-81
2024/03/27 11:43:24;;;;;;;4.43;3.40;;;;;;;17.63;80.60;98094.88;5077786;28;20433;-80
2024/03/27 11:46:30;;;;;;;7.15;3.83;;;;;;;17.71;80.16;98081.78;5074074;28;20048;-80
2024/03/27 11:49:35;;;;;;;4.40;3.20;;;;;;;17.93;77.77;98087.44;5094218;28;20051;-76
2024/03/27 11:52:40;;;;;;;3.95;2.20;;;;;;;18.18;74.15;98079.88;5094037;28;20047;-77
2024/03/27 11:55:52;;;;;;;1.73;0.80;;;;;;;17.68;65.16;98078.72;5094060;28;20055;-78
2024/03/27 11:58:57;;;;;;;2.50;0.20;;;;;;;17.24;58.83;98080.03;5095037;28;20055;-78
2024/03/27 12:02:03;;;;;;;0.68;0.30;;;;;;;17.67;58.34;98093.34;5095750;28;20047;-80
2024/03/27 12:05:09;;;;;;;1.00;0.50;;;;;;;17.78;57.61;98092.50;5094868;28;20067;-81
2024/03/27 12:08:14;;;;;;;1.00;0.30;;;;;;;17.86;55.78;98095.72;5094708;28;20044;-77
2024/03/27 12:11:20;;;;;;;0.57;0.20;;;;;;;17.61;56.00;98084.25;5095512;28;20043;-78
2024/03/27 12:14:25;;;;;;;1.30;0.50;;;;;;;17.25;55.67;98085.25;5095387;28;20063;-77
2024/03/27 12:17:36;;;;;;;0.70;0.30;;;;;;;17.60;56.88;98087.22;5074036;28;20502;-78
2024/03/27 12:20:42;;;;;;;1.10;0.47;;;;;;;16.63;56.52;98075.72;5077493;28;20055;-79
2024/03/27 12:23:46;;;;;;;0.82;0.30;;;;;;;16.88;57.03;98078.28;5095259;28;20059;-77
2024/03/27 12:26:53;;;;;;;2.28;0.90;;;;;;;16.46;55.86;98069.25;5094601;28;20047;-79
2024/03/27 12:29:57;;;;;;;1.17;0.35;;;;;;;16.59;53.68;98069.06;5095041;28;20106;-75
2024/03/27 12:33:02;;;;;;;2.45;0.22;;;;;;;17.15;53.87;98065.16;5074867;28;20052;-77
2024/03/27 12:36:07;;;;;;;0.98;0.40;;;;;;;16.63;54.74;98058.63;5074094;28;20051;-77
2024/03/27 12:39:11;;;;;;;0.73;0.30;;;;;;;16.49;53.22;98051.72;5062893;28;20119;-78
2024/03/27 12:42:15;;;;;;;1.08;0.38;;;;;;;16.83;54.07;98038.34;5073177;28;20051;-77
2024/03/27 12:45:20;;;;;;;1.75;0.70;;;;;;;16.73;56.24;98039.94;5073947;28;20056;-77
2024/03/27 12:48:24;;;;;;;1.00;0.38;;;;;;;16.87;57.41;98033.25;5074252;28;20049;-75
2024/03/27 12:51:29;;;;;;;2.20;0.85;;;;;;;15.99;58.96;98032.94;5083932;28;20051;-80
2024/03/27 12:54:33;;;;;;;2.20;1.10;;;;;;;16.42;59.98;98040.13;5094682;28;20055;-75
2024/03/27 12:57:38;;;;;;;1.65;0.70;;;;;;;15.99;58.33;98041.06;5094114;28;20055;-79
2024/03/27 13:00:46;;;;;;;1.45;0.55;;;;;;;15.65;57.95;98043.50;5092992;28;20050;-80
2024/03/27 13:03:51;;;;;;;4.90;0.32;;;;;;;15.61;56.86;98033.13;5093010;28;20055;-79
2024/03/27 13:06:56;;;;;;;2.92;0.70;;;;;;;15.01;58.29;98011.41;5092744;28;20047;-79
2024/03/27 13:10:01;;;;;;;4.18;0.70;;;;;;;14.92;57.66;97995.47;5093975;28;20055;-78
2024/03/27 13:13:05;;;;;;;1.60;0.70;;;;;;;14.52;58.14;97977.88;5072866;28;20399;-80
2024/03/27 13:16:10;;;;;;;1.85;0.70;;;;;;;14.42;57.63;97984.81;5070950;28;20056;-79
2024/03/27 13:19:14;;;;;;;2.28;0.90;;;;;;;14.37;58.73;97985.44;5073591;28;20044;-79
2024/03/27 13:22:18;;;;;;;5.72;0.98;;;;;;;14.35;58.99;98006.44;5092430;28;20513;-75
2024/03/27 13:25:27;;;;;;;2.33;0.50;;;;;;;14.54;59.18;98002.78;5093301;28;20051;-76
2024/03/27 13:28:32;;;;;;;3.15;1.33;;;;;;;14.62;59.48;98029.53;5095377;28;20040;-76
2024/03/27 13:31:37;;;;;;;2.92;0.70;;;;;;;14.50;57.97;98028.56;5094929;28;20051;-76
2024/03/27 13:34:42;;;;;;;2.40;0.60;;;;;;;14.72;58.44;98040.69;5094942;28;20051;-76
2024/03/27 13:37:47;;;;;;;3.03;1.30;;;;;;;15.09;57.59;98038.13;5094020;28;20055;-71
2024/03/27 13:40:52;;;;;;;4.40;1.38;;;;;;;15.06;57.64;98038.59;5094093;28;20051;-78
2024/03/27 13:43:56;;;;;;;4.32;1.30;;;;;;;15.16;55.22;98049.75;5090310;28;20059;-78
2024/03/27 13:47:01;;;;;;;3.15;1.10;;;;;;;15.64;54.76;98058.91;5073668;28;20052;-78
2024/03/27 13:50:06;;;;;;;3.92;1.13;;;;;;;15.56;54.64;98061.88;5073514;28;20048;-78
2024/03/27 13:53:10;;;;;;;5.00;1.23;;;;;;;15.57;54.16;98066.25;5076314;28;20051;-76
2024/03/27 13:56:15;;;;;;;2.20;1.02;;;;;;;15.56;54.67;98062.72;5093636;28;20047;-79
2024/03/27 13:59:19;;;;;;;5.55;0.90;;;;;;;15.18;55.72;98069.25;5092994;28;20059;-77
2024/03/27 14:02:24;;;;;;;4.30;0.98;;;;;;;15.40;55.51;98079.50;5093016;28;20489;-76
2024/03/27 14:05:29;;;;;;;2.70;1.00;;;;;;;15.27;55.16;98067.94;5093349;28;20521;-79
2024/03/27 14:08:33;;;;;;;2.28;0.90;;;;;;;15.03;55.71;98071.44;5092811;28;20051;-80
2024/03/27 14:11:38;;;;;;;2.35;0.60;;;;;;;15.28;55.79;98078.53;5093080;28;20047;-76
2024/03/27 14:14:43;;;;;;;3.28;1.00;;;;;;;15.46;55.14;98080.50;5091138;28;20043;-79
2024/03/27 14:17:47;;;;;;;3.83;1.17;;;;;;;15.35;55.96;98073.06;5089224;28;20058;-80